createdAt,value
2018-01-14T00:00:05.774Z,13.07
2018-01-14T00:02:33.350Z,11.35
2018-01-14T00:05:00.918Z,11.57
2018-01-14T00:07:28.492Z,11.65
2018-01-14T00:09:56.254Z,11.15
2018-01-14T00:12:23.846Z,11.25
2018-01-14T00:14:52.173Z,11.95
2018-01-14T00:17:19.745Z,13.80
2018-01-14T00:19:47.313Z,11.57
2018-01-14T00:22:14.866Z,12.90
2018-01-14T00:24:42.465Z,12.32
2018-01-14T00:27:10.029Z,11.18
2018-01-14T00:29:38.382Z,11.75
2018-01-14T00:32:05.958Z,12.77
2018-01-14T00:34:33.529Z,12.35
2018-01-14T00:37:01.873Z,11.88
2018-01-14T00:39:29.417Z,11.50
2018-01-14T00:41:57.981Z,11.95
2018-01-14T00:44:26.307Z,12.55
2018-01-14T00:46:53.861Z,12.25
2018-01-14T00:49:21.437Z,8.80
2018-01-14T00:51:49.075Z,10.45
2018-01-14T00:54:16.625Z,11.05
2018-01-14T00:56:44.224Z,13.68
2018-01-14T00:59:11.784Z,10.95
2018-01-14T01:01:40.179Z,11.07
2018-01-14T01:04:07.730Z,11.35
2018-01-14T01:06:35.321Z,8.43
2018-01-14T01:09:03.636Z,11.27
2018-01-14T01:11:31.256Z,11.32
2018-01-14T01:13:59.614Z,11.10
2018-01-14T01:16:27.184Z,12.85
2018-01-14T01:18:54.785Z,10.75
2018-01-14T01:21:22.352Z,10.68
2018-01-14T01:23:49.920Z,10.98
2018-01-14T01:26:17.497Z,10.82
2018-01-14T01:28:45.094Z,10.00
2018-01-14T01:31:12.668Z,13.32
2018-01-14T01:33:40.220Z,12.73
2018-01-14T01:36:07.802Z,13.30
2018-01-14T01:38:36.113Z,13.90
2018-01-14T01:41:03.712Z,12.43
2018-01-14T01:43:31.323Z,14.60
2018-01-14T01:45:58.913Z,13.82
2018-01-14T01:48:26.621Z,14.25
2018-01-14T01:50:54.974Z,13.82
2018-01-14T01:53:22.530Z,12.55
2018-01-14T01:55:50.119Z,13.07
2018-01-14T01:58:17.692Z,14.20
2018-01-14T02:00:45.305Z,14.77
2018-01-14T02:03:12.900Z,15.23
2018-01-14T02:05:40.464Z,11.30
2018-01-14T02:08:08.174Z,12.10
2018-01-14T02:10:35.749Z,13.68
2018-01-14T02:13:03.322Z,13.10
2018-01-14T02:15:30.922Z,11.00
2018-01-14T02:17:58.508Z,12.45
2018-01-14T02:20:26.064Z,13.52
2018-01-14T02:22:53.687Z,12.77
2018-01-14T02:25:21.277Z,11.57
2018-01-14T02:27:49.724Z,13.62
2018-01-14T02:30:17.284Z,11.65
2018-01-14T02:32:44.853Z,12.55
2018-01-14T02:35:12.413Z,12.25
2018-01-14T02:37:39.974Z,13.43
2018-01-14T02:40:07.591Z,12.48
2018-01-14T02:42:35.160Z,11.68
2018-01-14T02:45:02.719Z,13.20
2018-01-14T02:47:30.302Z,12.88
2018-01-14T02:49:57.891Z,13.68
2018-01-14T02:52:25.479Z,12.60
2018-01-14T02:54:53.927Z,12.55
2018-01-14T02:57:21.470Z,12.35
2018-01-14T02:59:49.041Z,10.65
2018-01-14T03:02:16.648Z,11.68
2018-01-14T03:04:44.974Z,11.15
2018-01-14T03:07:12.542Z,10.60
2018-01-14T03:09:40.120Z,14.25
2018-01-14T03:12:07.707Z,12.43
2018-01-14T03:14:36.077Z,13.90
2018-01-14T03:17:03.652Z,12.63
2018-01-14T03:19:32.009Z,12.75
2018-01-14T03:22:00.559Z,12.55
2018-01-14T03:24:28.099Z,13.73
2018-01-14T03:26:55.680Z,12.18
2018-01-14T03:29:23.332Z,13.20
2018-01-14T03:31:50.856Z,11.98
2018-01-14T03:34:19.212Z,13.15
2018-01-14T03:36:47.705Z,13.85
2018-01-14T03:39:15.308Z,12.32
2018-01-14T03:41:42.856Z,12.05
2018-01-14T03:44:11.170Z,12.15
2018-01-14T03:46:38.751Z,13.55
2018-01-14T03:49:06.302Z,12.02
2018-01-14T03:51:33.860Z,12.65
2018-01-14T03:54:01.439Z,11.52
2018-01-14T03:56:29.042Z,13.02
2018-01-14T03:58:57.380Z,12.52
2018-01-14T04:01:25.836Z,12.90
2018-01-14T04:03:53.501Z,13.40
2018-01-14T04:06:21.072Z,12.65
2018-01-14T04:08:48.689Z,12.52
2018-01-14T04:11:17.013Z,13.07
2018-01-14T04:13:44.591Z,14.77
2018-01-14T04:16:12.150Z,11.70
2018-01-14T04:18:39.764Z,12.95
2018-01-14T04:21:07.432Z,13.25
2018-01-14T04:23:35.023Z,13.73
2018-01-14T04:26:02.597Z,13.62
2018-01-14T04:28:30.177Z,13.80
2018-01-14T04:30:57.780Z,12.63
2018-01-14T04:33:35.320Z,12.40
2018-01-14T04:36:02.913Z,14.27
2018-01-14T04:38:31.243Z,12.75
2018-01-14T04:40:59.640Z,12.63
2018-01-14T04:43:27.205Z,12.23
2018-01-14T04:45:54.785Z,11.50
2018-01-14T04:48:23.081Z,12.30
2018-01-14T04:50:51.465Z,12.85
2018-01-14T04:53:19.789Z,13.90
2018-01-14T04:55:47.357Z,15.10
2018-01-14T04:58:14.982Z,12.37
2018-01-14T05:00:43.307Z,14.07
2018-01-14T05:03:10.891Z,14.13
2018-01-14T05:05:38.442Z,13.38
2018-01-14T05:08:06.043Z,12.70
2018-01-14T05:10:33.694Z,12.48
2018-01-14T05:13:02.036Z,13.25
2018-01-14T05:15:29.617Z,14.02
2018-01-14T05:17:57.230Z,12.20
2018-01-14T05:20:24.802Z,13.48
2018-01-14T05:22:52.354Z,13.75
2018-01-14T05:25:19.921Z,14.00
2018-01-14T05:27:47.475Z,13.65
2018-01-14T05:30:15.050Z,13.70
2018-01-14T05:32:42.613Z,12.75
2018-01-14T05:35:10.156Z,15.40
2018-01-14T05:37:37.767Z,14.07
2018-01-14T05:40:05.321Z,13.10
2018-01-14T05:42:32.975Z,13.00
2018-01-14T05:45:00.550Z,11.77
2018-01-14T05:47:28.320Z,13.07
2018-01-14T05:49:55.869Z,14.50
2018-01-14T05:52:23.469Z,12.52
2018-01-14T05:54:51.795Z,11.82
2018-01-14T05:57:19.369Z,13.57
2018-01-14T05:59:46.950Z,13.77
2018-01-14T06:02:14.508Z,12.23
2018-01-14T06:04:42.067Z,14.75
2018-01-14T06:07:09.622Z,11.65
2018-01-14T06:09:37.172Z,12.18
2018-01-14T06:12:04.756Z,13.02
2018-01-14T06:14:32.326Z,12.37
2018-01-14T06:17:00.672Z,13.62
2018-01-14T06:19:28.238Z,12.05
2018-01-14T06:21:55.782Z,12.15
2018-01-14T06:24:23.403Z,11.95
2018-01-14T06:26:51.725Z,13.65
2018-01-14T06:29:19.300Z,11.80
2018-01-14T06:31:46.849Z,12.75
2018-01-14T06:34:14.438Z,12.02
2018-01-14T06:36:41.995Z,12.73
2018-01-14T06:39:09.721Z,12.70
2018-01-14T06:41:37.276Z,12.80
2018-01-14T06:44:04.944Z,14.27
2018-01-14T06:46:33.154Z,12.65
2018-01-14T06:49:00.701Z,13.88
2018-01-14T06:51:28.276Z,12.32
2018-01-14T06:53:55.850Z,12.80
2018-01-14T06:56:23.417Z,13.32
2018-01-14T06:58:50.973Z,13.00
2018-01-14T07:01:18.536Z,12.45
2018-01-14T07:03:46.103Z,13.62
2018-01-14T07:06:13.661Z,12.80
2018-01-14T07:08:42.012Z,12.25
2018-01-14T07:11:09.572Z,13.43
2018-01-14T07:13:37.148Z,11.77
2018-01-14T07:16:04.900Z,12.75
2018-01-14T07:18:33.265Z,12.52
2018-01-14T07:21:00.894Z,13.05
2018-01-14T07:23:29.366Z,12.52
2018-01-14T07:25:57.401Z,13.65
2018-01-14T07:28:25.017Z,13.50
2018-01-14T07:30:53.341Z,13.57
2018-01-14T07:33:20.905Z,11.80
2018-01-14T07:35:48.468Z,12.65
2018-01-14T07:38:16.078Z,13.95
2018-01-14T07:40:44.544Z,14.48
2018-01-14T07:43:12.119Z,14.45
2018-01-14T07:45:40.474Z,13.48
2018-01-14T07:48:08.046Z,12.95
2018-01-14T07:50:35.626Z,11.90
2018-01-14T07:53:03.980Z,13.40
2018-01-14T07:55:31.697Z,12.45
2018-01-14T07:57:59.298Z,13.70
2018-01-14T08:00:26.972Z,13.48
2018-01-14T08:02:54.601Z,13.43
2018-01-14T08:05:22.256Z,13.93
2018-01-14T08:07:50.583Z,13.60
2018-01-14T08:10:18.175Z,13.73
2018-01-14T08:12:45.737Z,13.13
2018-01-14T08:15:13.355Z,13.00
2018-01-14T08:17:40.913Z,14.02
2018-01-14T08:20:08.634Z,13.07
2018-01-14T08:22:36.212Z,13.93
2018-01-14T08:25:03.779Z,13.60
2018-01-14T08:27:31.369Z,15.52
2018-01-14T08:29:59.124Z,15.40
2018-01-14T08:32:26.707Z,15.55
2018-01-14T08:34:55.073Z,18.23
2018-01-14T08:37:22.639Z,13.52
2018-01-14T08:39:50.188Z,13.35
2018-01-14T08:42:17.830Z,14.65
2018-01-14T08:44:46.124Z,15.10
2018-01-14T08:47:14.510Z,13.82
2018-01-14T08:49:42.078Z,15.27
2018-01-14T08:52:10.593Z,14.87
2018-01-14T08:54:38.925Z,15.45
2018-01-14T08:57:06.503Z,14.50
2018-01-14T08:59:34.080Z,16.00
2018-01-14T09:02:01.642Z,15.65
2018-01-14T09:04:29.430Z,14.93
2018-01-14T09:06:57.769Z,15.77
2018-01-14T09:09:25.425Z,15.95
2018-01-14T09:11:52.980Z,14.95
2018-01-14T09:14:20.577Z,16.33
2018-01-14T09:16:49.018Z,14.85
2018-01-14T09:19:16.603Z,15.15
2018-01-14T09:21:44.179Z,15.43
2018-01-14T09:24:12.502Z,15.50
2018-01-14T09:26:40.090Z,15.70
2018-01-14T09:29:07.671Z,14.13
2018-01-14T09:31:35.245Z,15.90
2018-01-14T09:34:03.585Z,15.77
2018-01-14T09:36:31.172Z,15.20
2018-01-14T09:38:58.726Z,14.95
2018-01-14T09:41:26.321Z,14.45
2018-01-14T09:43:54.673Z,16.35
2018-01-14T09:46:22.253Z,16.48
2018-01-14T09:48:49.929Z,16.25
2018-01-14T09:51:18.254Z,15.85
2018-01-14T09:53:45.846Z,16.33
2018-01-14T09:56:13.587Z,15.57
2018-01-14T09:58:41.205Z,15.20
2018-01-14T10:01:09.573Z,15.75
2018-01-14T10:03:37.908Z,15.73
2018-01-14T10:06:05.564Z,14.38
2018-01-14T10:08:33.202Z,15.02
2018-01-14T10:11:00.796Z,14.85
2018-01-14T10:13:28.390Z,14.85
2018-01-14T10:15:55.939Z,15.52
2018-01-14T10:18:23.638Z,16.92
2018-01-14T10:20:51.987Z,16.20
2018-01-14T10:23:20.443Z,16.90
2018-01-14T10:25:48.161Z,16.50
2018-01-14T10:28:15.761Z,16.00
2018-01-14T10:30:43.346Z,17.08
2018-01-14T10:33:10.921Z,14.82
2018-01-14T10:35:38.622Z,15.10
2018-01-14T10:38:06.209Z,14.68
2018-01-14T10:40:33.765Z,14.90
2018-01-14T10:43:01.404Z,14.23
2018-01-14T10:45:28.998Z,14.30
2018-01-14T10:47:56.701Z,15.52
2018-01-14T10:50:24.262Z,14.38
2018-01-14T10:52:51.866Z,16.55
2018-01-14T10:55:19.435Z,17.55
2018-01-14T10:57:47.137Z,15.15
2018-01-14T11:00:14.713Z,14.85
2018-01-14T11:02:42.280Z,15.23
2018-01-14T11:05:09.869Z,15.23
2018-01-14T11:07:37.454Z,15.15
2018-01-14T11:10:05.154Z,15.27
2018-01-14T11:12:32.728Z,14.25
2018-01-14T11:15:00.343Z,13.82
2018-01-14T11:17:28.581Z,14.82
2018-01-14T11:19:56.941Z,15.50
2018-01-14T11:22:24.523Z,15.10
2018-01-14T11:24:52.853Z,15.27
2018-01-14T11:27:20.439Z,14.00
2018-01-14T11:29:51.790Z,15.60
2018-01-14T11:32:19.361Z,14.75
2018-01-14T11:34:46.965Z,13.65
2018-01-14T11:37:14.524Z,14.05
2018-01-14T11:39:42.866Z,14.13
2018-01-14T11:42:10.417Z,14.10
2018-01-14T11:44:38.201Z,12.90
2018-01-14T11:47:06.512Z,13.43
2018-01-14T11:49:34.073Z,15.20
2018-01-14T11:52:01.628Z,12.70
2018-01-14T11:54:29.306Z,13.95
2018-01-14T11:56:56.870Z,14.48
2018-01-14T11:59:25.201Z,13.70
2018-01-14T12:01:52.815Z,13.50
2018-01-14T12:04:20.403Z,12.77
2018-01-14T12:06:47.999Z,15.50
2018-01-14T12:09:16.414Z,14.55
2018-01-14T12:11:44.032Z,13.40
2018-01-14T12:14:11.645Z,11.05
2018-01-14T12:16:39.225Z,13.73
2018-01-14T12:19:06.851Z,13.45
2018-01-14T12:21:34.528Z,13.40
2018-01-14T12:24:02.129Z,13.73
2018-01-14T12:26:29.774Z,14.80
2018-01-14T12:28:57.357Z,14.05
2018-01-14T12:31:24.941Z,14.10
2018-01-14T12:36:57.914Z,13.70
2018-01-14T12:39:25.477Z,14.10
2018-01-14T12:41:53.042Z,12.65
2018-01-14T12:44:20.630Z,13.13
2018-01-14T12:46:48.205Z,14.68
2018-01-14T12:49:15.781Z,14.25
2018-01-14T12:51:43.357Z,12.95
2018-01-14T12:54:10.953Z,14.90
2018-01-14T12:56:38.534Z,14.15
2018-01-14T12:59:06.114Z,13.73
2018-01-14T13:01:34.451Z,12.93
2018-01-14T13:04:02.035Z,14.73
2018-01-14T13:06:29.611Z,13.43
2018-01-14T13:08:57.201Z,13.65
2018-01-14T13:11:24.766Z,14.50
2018-01-14T13:13:52.372Z,14.20
2018-01-14T13:16:19.958Z,14.18
2018-01-14T13:18:47.505Z,11.77
2018-01-14T13:21:15.122Z,13.40
2018-01-14T13:23:42.706Z,13.52
2018-01-14T13:26:10.307Z,14.10
2018-01-14T13:28:38.679Z,12.07
2018-01-14T13:31:06.289Z,12.02
2018-01-14T13:33:33.913Z,14.65
2018-01-14T13:36:01.504Z,12.07
2018-01-14T13:38:30.082Z,13.70
2018-01-14T13:40:57.701Z,13.40
2018-01-14T13:43:25.524Z,14.25
2018-01-14T13:45:53.102Z,13.62
2018-01-14T13:48:20.986Z,14.90
2018-01-14T13:50:48.578Z,13.95
2018-01-14T13:53:16.192Z,14.15
2018-01-14T13:55:43.995Z,14.10
2018-01-14T13:58:11.761Z,13.30
2018-01-14T14:00:39.359Z,14.20
2018-01-14T14:03:06.916Z,14.30
2018-01-14T14:05:34.516Z,15.13
2018-01-14T14:08:02.084Z,15.82
2018-01-14T14:10:29.681Z,13.75
2018-01-14T14:12:57.255Z,14.07
2018-01-14T14:15:25.614Z,12.43
2018-01-14T14:17:53.196Z,16.45
2018-01-14T14:20:20.884Z,15.90
2018-01-14T14:22:49.220Z,12.90
2018-01-14T14:25:16.862Z,15.35
2018-01-14T14:27:44.480Z,13.85
2018-01-14T14:30:12.090Z,12.45
2018-01-14T14:32:39.705Z,13.80
2018-01-14T14:35:07.301Z,12.98
2018-01-14T14:37:34.992Z,12.40
2018-01-14T14:40:02.622Z,13.38
2018-01-14T14:42:30.226Z,12.50
2018-01-14T14:44:57.848Z,13.48
2018-01-14T14:47:25.426Z,13.35
2018-01-14T14:49:53.021Z,14.40
2018-01-14T14:52:20.675Z,12.60
2018-01-14T14:54:48.351Z,13.30
2018-01-14T14:57:15.945Z,13.00
2018-01-14T14:59:44.656Z,14.93
2018-01-14T15:02:12.373Z,13.30
2018-01-14T15:04:39.947Z,13.90
2018-01-14T15:07:07.603Z,13.38
2018-01-14T15:09:35.230Z,13.93
2018-01-14T15:12:02.826Z,13.90
2018-01-14T15:14:30.464Z,12.68
2018-01-14T15:16:58.080Z,13.82
2018-01-14T15:19:26.542Z,14.18
2018-01-14T15:21:54.893Z,13.15
2018-01-14T15:24:22.483Z,13.55
2018-01-14T15:26:50.029Z,14.75
2018-01-14T15:29:17.585Z,13.70
2018-01-14T15:31:45.159Z,14.18
2018-01-14T15:34:12.773Z,13.85
2018-01-14T15:36:41.066Z,14.05
2018-01-14T15:39:08.772Z,14.60
2018-01-14T15:41:36.357Z,15.63
2018-01-14T15:44:03.935Z,13.93
2018-01-14T15:46:31.652Z,13.82
2018-01-14T15:49:00.052Z,14.38
2018-01-14T15:51:28.509Z,14.02
2018-01-14T15:53:56.192Z,14.68
2018-01-14T15:56:24.495Z,14.25
2018-01-14T15:58:53.241Z,13.13
2018-01-14T16:01:20.882Z,13.73
2018-01-14T16:03:48.548Z,15.45
2018-01-14T16:06:16.259Z,15.20
2018-01-14T16:08:44.672Z,13.70
2018-01-14T16:11:12.231Z,14.07
2018-01-14T16:13:39.808Z,13.62
2018-01-14T16:16:07.394Z,13.40
2018-01-14T16:18:34.954Z,14.02
2018-01-14T16:21:02.548Z,14.02
2018-01-14T16:23:30.263Z,14.07
2018-01-14T16:25:57.833Z,13.27
2018-01-14T16:28:25.466Z,14.25
2018-01-14T16:30:53.064Z,13.73
2018-01-14T16:33:20.637Z,14.15
2018-01-14T16:35:48.214Z,15.05
2018-01-14T16:38:15.928Z,14.48
2018-01-14T16:40:43.505Z,14.15
2018-01-14T16:43:11.075Z,14.60
2018-01-14T16:45:38.921Z,13.35
2018-01-14T16:48:06.801Z,13.65
2018-01-14T16:50:34.360Z,13.38
2018-01-14T16:53:01.968Z,14.85
2018-01-14T16:55:29.552Z,17.23
2018-01-14T16:57:57.131Z,15.45
2018-01-14T17:00:24.730Z,15.60
2018-01-14T17:02:52.330Z,18.33
2018-01-14T17:05:20.729Z,17.50
2018-01-14T17:07:48.976Z,16.35
2018-01-14T17:10:16.586Z,16.98
2018-01-14T17:12:46.460Z,22.85
2018-01-14T17:15:14.847Z,15.68
2018-01-14T17:17:43.191Z,16.40
2018-01-14T17:20:10.756Z,15.55
2018-01-14T17:22:38.385Z,17.08
2018-01-14T17:25:06.033Z,16.00
2018-01-14T17:27:33.608Z,15.85
2018-01-14T17:30:01.274Z,16.10
2018-01-14T17:32:30.416Z,16.73
2018-01-14T17:34:58.888Z,15.30
2018-01-14T17:37:27.221Z,14.82
2018-01-14T17:39:54.821Z,16.12
2018-01-14T17:42:22.395Z,17.17
2018-01-14T17:44:50.017Z,16.10
2018-01-14T17:47:17.662Z,16.52
2018-01-14T17:49:45.250Z,14.65
2018-01-14T17:52:12.838Z,14.82
2018-01-14T17:54:40.435Z,15.88
2018-01-14T17:57:09.056Z,14.60
2018-01-14T17:59:36.624Z,14.32
2018-01-14T18:02:04.200Z,14.93
2018-01-14T18:04:31.798Z,14.57
2018-01-14T18:07:00.198Z,15.75
2018-01-14T18:09:28.550Z,16.35
2018-01-14T18:11:56.899Z,16.30
2018-01-14T18:14:24.560Z,14.60
2018-01-14T18:17:03.014Z,14.30
2018-01-14T18:19:31.424Z,15.35
2018-01-14T18:21:59.038Z,15.88
2018-01-14T18:24:26.683Z,15.77
2018-01-14T18:26:54.393Z,16.80
2018-01-14T18:29:22.739Z,14.68
2018-01-14T18:31:50.455Z,16.98
2018-01-14T18:34:18.781Z,21.92
2018-01-14T18:36:46.346Z,21.50
2018-01-14T18:39:13.962Z,22.10
2018-01-14T18:41:42.431Z,15.55
2018-01-14T18:44:10.775Z,15.40
2018-01-14T18:46:38.346Z,15.52
2018-01-14T18:49:05.926Z,14.98
2018-01-14T18:51:34.305Z,17.05
2018-01-14T18:54:02.732Z,15.85
2018-01-14T18:56:30.329Z,15.15
2018-01-14T18:58:57.910Z,17.08
2018-01-14T19:01:26.366Z,16.02
2018-01-14T19:03:53.931Z,16.40
2018-01-14T19:06:21.539Z,15.32
2018-01-14T19:08:49.973Z,15.65
2018-01-14T19:11:18.464Z,15.88
2018-01-14T19:13:46.055Z,15.48
2018-01-14T19:16:13.634Z,14.50
2018-01-14T19:18:41.284Z,14.27
2018-01-14T19:21:08.849Z,15.32
2018-01-14T19:23:36.420Z,17.10
2018-01-14T19:26:04.076Z,15.30
2018-01-14T19:28:31.673Z,17.08
2018-01-14T19:30:59.267Z,15.38
2018-01-14T19:33:27.613Z,15.90
2018-01-14T19:35:55.230Z,17.87
2018-01-14T19:38:23.556Z,15.90
2018-01-14T19:40:51.153Z,16.05
2018-01-14T19:43:18.780Z,15.57
2018-01-14T19:45:46.407Z,15.27
2018-01-14T19:48:14.017Z,15.98
2018-01-14T19:50:41.577Z,16.08
2018-01-14T19:53:09.193Z,15.82
2018-01-14T19:55:37.493Z,16.15
2018-01-14T19:58:05.073Z,16.58
2018-01-14T20:00:32.765Z,14.45
2018-01-14T20:03:00.473Z,16.52
2018-01-14T20:05:28.236Z,17.12
2018-01-14T20:07:55.865Z,17.80
2018-01-14T20:10:23.487Z,16.02
2018-01-14T20:12:51.589Z,16.17
2018-01-14T20:15:19.179Z,17.40
2018-01-14T20:17:47.523Z,16.50
2018-01-14T20:20:15.458Z,16.95
2018-01-14T20:22:43.178Z,16.70
2018-01-14T20:25:11.554Z,18.27
2018-01-14T20:27:39.896Z,17.00
2018-01-14T20:30:07.494Z,18.15
2018-01-14T20:32:35.885Z,17.20
2018-01-14T20:35:03.558Z,18.70
2018-01-14T20:37:31.255Z,17.30
2018-01-14T20:39:58.888Z,18.90
2018-01-14T20:42:26.536Z,18.52
2018-01-14T20:44:55.155Z,18.23
2018-01-14T20:47:22.794Z,17.85
2018-01-14T20:49:50.427Z,17.12
2018-01-14T20:52:18.045Z,19.15
2018-01-14T20:54:45.612Z,17.17
2018-01-14T20:57:23.139Z,18.35
2018-01-14T20:59:50.763Z,19.30
2018-01-14T21:02:18.385Z,18.90
2018-01-14T21:04:46.891Z,18.95
2018-01-14T21:07:14.446Z,19.10
2018-01-14T21:09:42.043Z,18.90
2018-01-14T21:12:09.795Z,19.67
2018-01-14T21:14:37.375Z,16.37
2018-01-14T21:17:04.996Z,19.02
2018-01-14T21:19:33.176Z,20.33
2018-01-14T21:22:00.790Z,18.95
2018-01-14T21:24:28.395Z,17.65
2018-01-14T21:26:56.778Z,19.02
2018-01-14T21:29:25.172Z,18.60
2018-01-14T21:31:53.551Z,19.15
2018-01-14T21:34:21.202Z,18.37
2018-01-14T21:36:49.518Z,17.02
2018-01-14T21:39:17.107Z,19.92
2018-01-14T21:41:44.682Z,19.10
2018-01-14T21:44:13.045Z,17.62
2018-01-14T21:46:41.369Z,17.27
2018-01-14T21:49:09.405Z,18.08
2018-01-14T21:51:37.781Z,18.60
2018-01-14T21:54:05.349Z,17.12
2018-01-14T21:56:33.721Z,18.48
2018-01-14T21:59:02.048Z,17.33
2018-01-14T22:01:29.633Z,18.85
2018-01-14T22:03:57.208Z,17.92
2018-01-14T22:06:29.470Z,17.55
2018-01-14T22:08:57.094Z,17.48
2018-01-14T22:11:24.793Z,15.70
2018-01-14T22:13:52.356Z,18.05
2018-01-14T22:16:19.983Z,18.80
2018-01-14T22:18:47.550Z,18.35
2018-01-14T22:21:15.159Z,16.73
2018-01-14T22:23:42.795Z,17.80
2018-01-14T22:26:10.346Z,17.65
2018-01-14T22:28:37.945Z,18.87
2018-01-14T22:31:05.536Z,16.98
2018-01-14T22:33:33.852Z,18.27
2018-01-14T22:36:01.429Z,17.25
2018-01-14T22:38:29.085Z,17.67
2018-01-14T22:40:56.745Z,15.32
2018-01-14T22:43:24.343Z,17.92
2018-01-14T22:45:52.053Z,15.93
2018-01-14T22:48:19.695Z,17.73
2018-01-14T22:50:48.042Z,17.33
2018-01-14T22:53:15.674Z,17.12
2018-01-14T22:55:43.221Z,17.62
2018-01-14T22:58:10.773Z,16.05
2018-01-14T23:00:38.332Z,17.55
2018-01-14T23:03:06.164Z,15.13
2018-01-14T23:05:34.637Z,16.87
2018-01-14T23:08:02.311Z,16.15
2018-01-14T23:10:29.997Z,17.37
2018-01-14T23:12:57.546Z,15.45
2018-01-14T23:15:25.884Z,17.50
2018-01-14T23:17:53.474Z,14.73
2018-01-14T23:20:21.845Z,15.45
2018-01-14T23:22:49.444Z,16.48
2018-01-14T23:25:17.026Z,17.30
2018-01-14T23:27:44.613Z,17.15
2018-01-14T23:30:13.078Z,17.58
2018-01-14T23:32:40.786Z,16.58
2018-01-14T23:35:08.373Z,16.42
2018-01-14T23:37:35.950Z,17.42
2018-01-14T23:40:03.516Z,17.08
2018-01-14T23:42:31.128Z,14.48
2018-01-14T23:44:58.693Z,16.08
2018-01-14T23:47:26.317Z,16.67
2018-01-14T23:49:53.913Z,17.27
2018-01-14T23:52:21.476Z,16.65
2018-01-14T23:54:49.833Z,15.07
2018-01-14T23:57:17.409Z,15.60
2018-01-14T23:59:45.741Z,15.18
